sensor_id;sensor_type;location;lat;lon;timestamp;pressure;altitude;pressure_sealevel;temperature;humidity
61292;BME280;47165;42.664;23.368;2023-09-08T00:00:50;95541.41;;;22.89;54.60
61292;BME280;47165;42.664;23.368;2023-09-08T00:03:15;95542.09;;;22.92;54.57
61292;BME280;47165;42.664;23.368;2023-09-08T00:05:41;95538.00;;;22.97;55.22
61292;BME280;47165;42.664;23.368;2023-09-08T00:08:07;95541.94;;;22.93;55.16
61292;BME280;47165;42.664;23.368;2023-09-08T00:10:32;95539.28;;;22.93;55.12
61292;BME280;47165;42.664;23.368;2023-09-08T00:12:58;95534.63;;;22.95;55.17
61292;BME280;47165;42.664;23.368;2023-09-08T00:15:23;95537.13;;;22.79;56.27
61292;BME280;47165;42.664;23.368;2023-09-08T00:17:49;95530.50;;;22.18;55.69
61292;BME280;47165;42.664;23.368;2023-09-08T00:20:14;95531.22;;;22.29;53.04
61292;BME280;47165;42.664;23.368;2023-09-08T00:22:40;95527.66;;;22.39;53.71
61292;BME280;47165;42.664;23.368;2023-09-08T00:25:06;95533.38;;;22.44;53.30
61292;BME280;47165;42.664;23.368;2023-09-08T00:27:32;95532.25;;;22.46;53.39
61292;BME280;47165;42.664;23.368;2023-09-08T00:29:58;95531.66;;;22.53;53.10
61292;BME280;47165;42.664;23.368;2023-09-08T00:32:23;95524.22;;;22.56;53.24
61292;BME280;47165;42.664;23.368;2023-09-08T00:34:49;95524.91;;;22.58;52.95
61292;BME280;47165;42.664;23.368;2023-09-08T00:37:15;95529.81;;;22.53;52.75
61292;BME280;47165;42.664;23.368;2023-09-08T00:39:40;95527.31;;;22.52;52.21
61292;BME280;47165;42.664;23.368;2023-09-08T00:42:06;95527.47;;;22.50;52.61
61292;BME280;47165;42.664;23.368;2023-09-08T00:44:32;95530.78;;;22.24;51.68
61292;BME280;47165;42.664;23.368;2023-09-08T00:46:59;95523.66;;;22.25;51.88
61292;BME280;47165;42.664;23.368;2023-09-08T00:49:24;95532.72;;;22.32;51.86
61292;BME280;47165;42.664;23.368;2023-09-08T00:55:10;95522.91;;;22.33;51.57
61292;BME280;47165;42.664;23.368;2023-09-08T00:57:36;95527.31;;;22.24;51.53
61292;BME280;47165;42.664;23.368;2023-09-08T01:00:02;95520.97;;;22.25;51.62
61292;BME280;47165;42.664;23.368;2023-09-08T01:02:31;95516.53;;;22.16;51.81
61292;BME280;47165;42.664;23.368;2023-09-08T01:04:58;95517.94;;;22.10;51.81
61292;BME280;47165;42.664;23.368;2023-09-08T01:07:26;95521.44;;;22.10;51.40
61292;BME280;47165;42.664;23.368;2023-09-08T01:09:53;95514.00;;;22.14;51.26
61292;BME280;47165;42.664;23.368;2023-09-08T01:12:19;95520.72;;;22.08;51.39
61292;BME280;47165;42.664;23.368;2023-09-08T01:14:45;95520.91;;;22.07;51.64
61292;BME280;47165;42.664;23.368;2023-09-08T01:17:10;95520.00;;;22.16;51.97
61292;BME280;47165;42.664;23.368;2023-09-08T01:19:38;95520.16;;;22.24;51.92
61292;BME280;47165;42.664;23.368;2023-09-08T01:27:39;95521.41;;;22.20;52.08
61292;BME280;47165;42.664;23.368;2023-09-08T01:30:15;95516.06;;;22.20;51.94
61292;BME280;47165;42.664;23.368;2023-09-08T01:32:41;95519.06;;;22.07;51.96
61292;BME280;47165;42.664;23.368;2023-09-08T01:35:07;95510.50;;;22.14;51.91
61292;BME280;47165;42.664;23.368;2023-09-08T01:37:32;95504.59;;;22.20;52.01
61292;BME280;47165;42.664;23.368;2023-09-08T01:39:58;95506.13;;;22.22;52.36
61292;BME280;47165;42.664;23.368;2023-09-08T01:42:31;95508.69;;;22.24;52.51
61292;BME280;47165;42.664;23.368;2023-09-08T01:44:56;95511.34;;;22.24;52.78
61292;BME280;47165;42.664;23.368;2023-09-08T01:47:27;95498.88;;;22.24;52.50
61292;BME280;47165;42.664;23.368;2023-09-08T01:49:53;95512.16;;;22.24;52.48
61292;BME280;47165;42.664;23.368;2023-09-08T01:52:18;95496.38;;;22.13;52.75
61292;BME280;47165;42.664;23.368;2023-09-08T01:54:46;95513.19;;;22.23;52.65
61292;BME280;47165;42.664;23.368;2023-09-08T01:57:11;95495.00;;;22.09;52.87
61292;BME280;47165;42.664;23.368;2023-09-08T01:59:38;95507.28;;;22.20;52.91
61292;BME280;47165;42.664;23.368;2023-09-08T02:02:04;95509.78;;;22.21;52.93
61292;BME280;47165;42.664;23.368;2023-09-08T02:04:29;95505.44;;;22.20;52.99
61292;BME280;47165;42.664;23.368;2023-09-08T02:06:55;95497.47;;;22.20;53.03
61292;BME280;47165;42.664;23.368;2023-09-08T02:09:20;95495.81;;;22.19;53.32
61292;BME280;47165;42.664;23.368;2023-09-08T02:11:46;95492.16;;;22.10;53.54
61292;BME280;47165;42.664;23.368;2023-09-08T02:14:12;95499.22;;;22.02;53.92
61292;BME280;47165;42.664;23.368;2023-09-08T02:16:37;95494.59;;;21.94;54.21
61292;BME280;47165;42.664;23.368;2023-09-08T02:19:03;95495.31;;;21.96;54.39
61292;BME280;47165;42.664;23.368;2023-09-08T02:21:29;95489.16;;;21.96;54.71
61292;BME280;47165;42.664;23.368;2023-09-08T02:23:54;95480.91;;;21.99;54.82
61292;BME280;47165;42.664;23.368;2023-09-08T02:26:20;95485.91;;;22.02;55.08
61292;BME280;47165;42.664;23.368;2023-09-08T02:28:45;95480.47;;;22.03;55.22
61292;BME280;47165;42.664;23.368;2023-09-08T02:31:11;95488.44;;;22.03;55.15
61292;BME280;47165;42.664;23.368;2023-09-08T02:33:37;95480.72;;;22.00;55.25
61292;BME280;47165;42.664;23.368;2023-09-08T02:36:05;95487.88;;;22.00;55.57
61292;BME280;47165;42.664;23.368;2023-09-08T02:38:32;95489.16;;;21.96;55.74
61292;BME280;47165;42.664;23.368;2023-09-08T02:40:58;95483.84;;;21.96;55.86
61292;BME280;47165;42.664;23.368;2023-09-08T02:43:23;95484.97;;;21.93;55.99
61292;BME280;47165;42.664;23.368;2023-09-08T02:45:49;95482.19;;;21.95;56.02
61292;BME280;47165;42.664;23.368;2023-09-08T02:48:15;95485.56;;;21.87;56.13
61292;BME280;47165;42.664;23.368;2023-09-08T02:50:43;95487.41;;;21.67;56.92
61292;BME280;47165;42.664;23.368;2023-09-08T02:53:09;95482.81;;;21.59;57.05
61292;BME280;47165;42.664;23.368;2023-09-08T02:55:35;95481.84;;;21.70;57.09
61292;BME280;47165;42.664;23.368;2023-09-08T02:58:00;95472.88;;;21.71;57.17
61292;BME280;47165;42.664;23.368;2023-09-08T03:00:26;95477.47;;;21.69;57.01
61292;BME280;47165;42.664;23.368;2023-09-08T03:02:51;95475.13;;;21.66;57.34
61292;BME280;47165;42.664;23.368;2023-09-08T03:05:16;95466.03;;;21.68;57.41
61292;BME280;47165;42.664;23.368;2023-09-08T03:07:43;95468.00;;;21.66;57.39
61292;BME280;47165;42.664;23.368;2023-09-08T03:10:08;95472.75;;;21.53;58.08
61292;BME280;47165;42.664;23.368;2023-09-08T03:12:46;95472.75;;;21.53;58.01
61292;BME280;47165;42.664;23.368;2023-09-08T03:15:12;95472.63;;;21.45;58.41
61292;BME280;47165;42.664;23.368;2023-09-08T03:17:38;95468.56;;;21.50;58.45
61292;BME280;47165;42.664;23.368;2023-09-08T03:25:14;95475.47;;;21.04;59.78
61292;BME280;47165;42.664;23.368;2023-09-08T03:27:40;95476.44;;;20.84;60.96
61292;BME280;47165;42.664;23.368;2023-09-08T03:30:06;95470.56;;;20.90;60.81
61292;BME280;47165;42.664;23.368;2023-09-08T03:32:32;95474.47;;;20.96;60.62
61292;BME280;47165;42.664;23.368;2023-09-08T03:34:58;95477.41;;;21.02;60.58
61292;BME280;47165;42.664;23.368;2023-09-08T03:37:24;95467.19;;;21.07;60.44
61292;BME280;47165;42.664;23.368;2023-09-08T03:39:52;95477.25;;;21.14;60.13
61292;BME280;47165;42.664;23.368;2023-09-08T03:42:17;95486.22;;;21.13;60.26
61292;BME280;47165;42.664;23.368;2023-09-08T03:44:43;95481.16;;;21.09;60.44
61292;BME280;47165;42.664;23.368;2023-09-08T03:47:09;95476.56;;;21.12;60.25
61292;BME280;47165;42.664;23.368;2023-09-08T03:49:34;95478.66;;;21.18;60.07
61292;BME280;47165;42.664;23.368;2023-09-08T03:52:00;95474.16;;;21.18;60.12
61292;BME280;47165;42.664;23.368;2023-09-08T03:54:25;95472.09;;;21.12;60.09
61292;BME280;47165;42.664;23.368;2023-09-08T03:56:51;95474.19;;;21.08;60.53
61292;BME280;47165;42.664;23.368;2023-09-08T03:59:16;95469.97;;;21.06;60.70
61292;BME280;47165;42.664;23.368;2023-09-08T04:01:42;95469.44;;;21.02;60.79
61292;BME280;47165;42.664;23.368;2023-09-08T04:04:08;95472.81;;;21.04;60.85
61292;BME280;47165;42.664;23.368;2023-09-08T04:06:34;95478.66;;;20.98;60.98
61292;BME280;47165;42.664;23.368;2023-09-08T04:09:00;95477.41;;;21.02;60.93
61292;BME280;47165;42.664;23.368;2023-09-08T04:11:33;95475.47;;;21.04;60.62
61292;BME280;47165;42.664;23.368;2023-09-08T04:13:59;95475.16;;;20.98;60.93
61292;BME280;47165;42.664;23.368;2023-09-08T04:16:26;95467.19;;;20.98;60.56
61292;BME280;47165;42.664;23.368;2023-09-08T04:18:51;95466.34;;;20.97;60.75
61292;BME280;47165;42.664;23.368;2023-09-08T04:21:17;95470.28;;;20.93;60.67
61292;BME280;47165;42.664;23.368;2023-09-08T04:23:42;95478.38;;;20.92;60.79
61292;BME280;47165;42.664;23.368;2023-09-08T04:26:08;95474.75;;;20.93;60.92
61292;BME280;47165;42.664;23.368;2023-09-08T04:28:33;95484.25;;;20.95;60.91
61292;BME280;47165;42.664;23.368;2023-09-08T04:30:59;95483.69;;;20.92;61.01
61292;BME280;47165;42.664;23.368;2023-09-08T04:33:25;95486.50;;;20.90;61.13
61292;BME280;47165;42.664;23.368;2023-09-08T04:35:50;95484.81;;;20.89;61.05
61292;BME280;47165;42.664;23.368;2023-09-08T04:38:16;95478.25;;;20.93;60.68
61292;BME280;47165;42.664;23.368;2023-09-08T04:40:42;95485.25;;;20.94;60.88
61292;BME280;47165;42.664;23.368;2023-09-08T04:43:07;95488.59;;;20.96;60.63
61292;BME280;47165;42.664;23.368;2023-09-08T04:45:33;95487.91;;;20.94;60.66
61292;BME280;47165;42.664;23.368;2023-09-08T04:47:59;95483.00;;;20.99;60.61
61292;BME280;47165;42.664;23.368;2023-09-08T04:50:24;95485.66;;;20.99;60.84
61292;BME280;47165;42.664;23.368;2023-09-08T04:58:19;95489.00;;;21.01;60.63
61292;BME280;47165;42.664;23.368;2023-09-08T05:00:44;95487.75;;;21.05;60.50
61292;BME280;47165;42.664;23.368;2023-09-08T05:03:10;95489.56;;;21.05;60.80
61292;BME280;47165;42.664;23.368;2023-09-08T05:05:35;95492.09;;;21.06;60.48
61292;BME280;47165;42.664;23.368;2023-09-08T05:08:01;95497.09;;;21.09;60.38
61292;BME280;47165;42.664;23.368;2023-09-08T05:10:31;95494.59;;;21.08;59.77
61292;BME280;47165;42.664;23.368;2023-09-08T05:12:57;95488.44;;;21.07;60.16
61292;BME280;47165;42.664;23.368;2023-09-08T05:15:26;95497.22;;;21.08;59.95
61292;BME280;47165;42.664;23.368;2023-09-08T05:17:51;95496.28;;;21.09;59.75
61292;BME280;47165;42.664;23.368;2023-09-08T05:20:17;95495.84;;;21.14;59.55
61292;BME280;47165;42.664;23.368;2023-09-08T05:22:42;95496.84;;;21.13;59.38
61292;BME280;47165;42.664;23.368;2023-09-08T05:25:08;95495.16;;;21.12;59.31
61292;BME280;47165;42.664;23.368;2023-09-08T05:27:34;95498.81;;;21.10;58.93
61292;BME280;47165;42.664;23.368;2023-09-08T05:29:59;95494.19;;;21.03;58.78
61292;BME280;47165;42.664;23.368;2023-09-08T05:32:25;95495.56;;;21.07;58.70
61292;BME280;47165;42.664;23.368;2023-09-08T05:34:50;95501.72;;;21.07;58.86
61292;BME280;47165;42.664;23.368;2023-09-08T05:37:16;95495.16;;;21.12;58.98
61292;BME280;47165;42.664;23.368;2023-09-08T05:39:41;95495.28;;;21.20;59.03
61292;BME280;47165;42.664;23.368;2023-09-08T05:42:07;95501.28;;;21.22;58.66
61292;BME280;47165;42.664;23.368;2023-09-08T05:44:32;95497.50;;;21.24;59.02
61292;BME280;47165;42.664;23.368;2023-09-08T05:46:58;95502.13;;;21.32;58.51
61292;BME280;47165;42.664;23.368;2023-09-08T05:49:23;95504.38;;;21.27;57.60
61292;BME280;47165;42.664;23.368;2023-09-08T05:51:49;95499.91;;;21.37;57.87
61292;BME280;47165;42.664;23.368;2023-09-08T05:54:15;95504.78;;;21.32;57.84
61292;BME280;47165;42.664;23.368;2023-09-08T05:56:40;95501.28;;;21.41;57.58
61292;BME280;47165;42.664;23.368;2023-09-08T05:59:06;95502.84;;;21.54;57.42
61292;BME280;47165;42.664;23.368;2023-09-08T06:01:32;95501.97;;;21.63;56.57
61292;BME280;47165;42.664;23.368;2023-09-08T06:03:58;95504.63;;;21.63;56.14
61292;BME280;47165;42.664;23.368;2023-09-08T06:06:24;95505.50;;;21.54;55.38
61292;BME280;47165;42.664;23.368;2023-09-08T06:08:50;95503.50;;;21.65;55.84
61292;BME280;47165;42.664;23.368;2023-09-08T06:11:16;95505.19;;;21.76;55.45
61292;BME280;47165;42.664;23.368;2023-09-08T06:13:42;95504.94;;;21.60;54.03
61292;BME280;47165;42.664;23.368;2023-09-08T06:16:08;95509.63;;;21.76;54.63
61292;BME280;47165;42.664;23.368;2023-09-08T06:18:33;95501.78;;;21.84;53.71
61292;BME280;47165;42.664;23.368;2023-09-08T06:21:07;95507.78;;;21.96;53.25
61292;BME280;47165;42.664;23.368;2023-09-08T06:23:33;95513.78;;;21.98;53.06
61292;BME280;47165;42.664;23.368;2023-09-08T06:25:59;95504.53;;;22.02;52.35
61292;BME280;47165;42.664;23.368;2023-09-08T06:28:26;95511.94;;;22.08;51.52
61292;BME280;47165;42.664;23.368;2023-09-08T06:30:53;95511.69;;;22.01;50.84
61292;BME280;47165;42.664;23.368;2023-09-08T06:33:21;95515.00;;;22.13;50.57
61292;BME280;47165;42.664;23.368;2023-09-08T06:38:22;95522.22;;;22.30;49.48
61292;BME280;47165;42.664;23.368;2023-09-08T06:40:48;95533.53;;;22.42;49.62
61292;BME280;47165;42.664;23.368;2023-09-08T06:43:15;95530.66;;;22.54;49.68
61292;BME280;47165;42.664;23.368;2023-09-08T06:45:40;95526.34;;;22.53;48.01
61292;BME280;47165;42.664;23.368;2023-09-08T06:48:06;95516.34;;;22.64;48.07
61292;BME280;47165;42.664;23.368;2023-09-08T06:50:31;95520.47;;;22.77;47.92
61292;BME280;47165;42.664;23.368;2023-09-08T06:52:58;95520.75;;;22.74;46.05
61292;BME280;47165;42.664;23.368;2023-09-08T06:55:24;95526.84;;;22.84;45.90
61292;BME280;47165;42.664;23.368;2023-09-08T06:57:49;95523.63;;;22.80;47.06
61292;BME280;47165;42.664;23.368;2023-09-08T07:00:15;95518.66;;;22.95;45.51
61292;BME280;47165;42.664;23.368;2023-09-08T07:02:50;95525.47;;;23.07;45.42
61292;BME280;47165;42.664;23.368;2023-09-08T07:05:16;95524.09;;;23.21;46.02
61292;BME280;47165;42.664;23.368;2023-09-08T07:07:42;95518.06;;;23.37;45.09
61292;BME280;47165;42.664;23.368;2023-09-08T07:10:08;95522.66;;;23.27;43.79
61292;BME280;47165;42.664;23.368;2023-09-08T07:12:34;95526.00;;;23.29;43.94
61292;BME280;47165;42.664;23.368;2023-09-08T07:14:59;95526.53;;;23.33;43.51
61292;BME280;47165;42.664;23.368;2023-09-08T07:17:26;95521.19;;;23.50;43.22
61292;BME280;47165;42.664;23.368;2023-09-08T07:19:51;95517.66;;;23.50;42.47
61292;BME280;47165;42.664;23.368;2023-09-08T07:22:17;95520.63;;;23.65;42.19
61292;BME280;47165;42.664;23.368;2023-09-08T07:24:44;95518.72;;;23.75;42.93
61292;BME280;47165;42.664;23.368;2023-09-08T07:27:10;95515.44;;;23.81;42.50
61292;BME280;47165;42.664;23.368;2023-09-08T07:29:37;95508.00;;;23.93;42.43
61292;BME280;47165;42.664;23.368;2023-09-08T07:32:03;95507.91;;;24.03;41.63
61292;BME280;47165;42.664;23.368;2023-09-08T07:34:29;95513.03;;;24.22;42.10
61292;BME280;47165;42.664;23.368;2023-09-08T07:36:54;95511.53;;;24.28;40.84
61292;BME280;47165;42.664;23.368;2023-09-08T07:39:20;95515.94;;;24.37;41.15
61292;BME280;47165;42.664;23.368;2023-09-08T07:41:45;95504.47;;;24.45;40.40
61292;BME280;47165;42.664;23.368;2023-09-08T07:44:12;95498.19;;;24.62;40.98
61292;BME280;47165;42.664;23.368;2023-09-08T07:46:38;95500.25;;;24.77;39.67
61292;BME280;47165;42.664;23.368;2023-09-08T07:49:04;95502.94;;;24.93;40.04
61292;BME280;47165;42.664;23.368;2023-09-08T07:51:29;95510.28;;;24.91;39.20
61292;BME280;47165;42.664;23.368;2023-09-08T07:53:56;95498.28;;;25.03;39.03
61292;BME280;47165;42.664;23.368;2023-09-08T07:56:22;95501.84;;;25.28;39.64
61292;BME280;47165;42.664;23.368;2023-09-08T07:58:47;95498.03;;;25.23;38.37
61292;BME280;47165;42.664;23.368;2023-09-08T08:01:13;95496.66;;;25.10;38.45
61292;BME280;47165;42.664;23.368;2023-09-08T08:03:40;95492.19;;;25.27;38.92
61292;BME280;47165;42.664;23.368;2023-09-08T08:06:05;95499.19;;;25.45;38.39
61292;BME280;47165;42.664;23.368;2023-09-08T08:08:31;95501.19;;;25.35;38.63
61292;BME280;47165;42.664;23.368;2023-09-08T08:10:57;95492.03;;;25.45;37.43
61292;BME280;47165;42.664;23.368;2023-09-08T08:13:23;95489.50;;;25.52;37.63
61292;BME280;47165;42.664;23.368;2023-09-08T08:15:48;95492.03;;;25.54;37.19
61292;BME280;47165;42.664;23.368;2023-09-08T08:18:14;95495.00;;;25.75;37.18
61292;BME280;47165;42.664;23.368;2023-09-08T08:20:44;95489.97;;;26.05;37.28
61292;BME280;47165;42.664;23.368;2023-09-08T08:23:10;95499.94;;;26.27;37.92
61292;BME280;47165;42.664;23.368;2023-09-08T08:25:36;95492.22;;;26.33;36.82
61292;BME280;47165;42.664;23.368;2023-09-08T08:28:01;95483.50;;;26.39;35.95
61292;BME280;47165;42.664;23.368;2023-09-08T08:30:28;95479.03;;;26.23;34.41
61292;BME280;47165;42.664;23.368;2023-09-08T08:32:53;95467.13;;;26.34;35.13
61292;BME280;47165;42.664;23.368;2023-09-08T08:35:20;95478.25;;;26.54;35.09
61292;BME280;47165;42.664;23.368;2023-09-08T08:37:45;95475.34;;;26.72;35.05
61292;BME280;47165;42.664;23.368;2023-09-08T08:40:13;95480.66;;;26.80;35.02
61292;BME280;47165;42.664;23.368;2023-09-08T08:42:39;95476.38;;;26.71;33.28
61292;BME280;47165;42.664;23.368;2023-09-08T08:45:06;95480.28;;;26.91;33.75
61292;BME280;47165;42.664;23.368;2023-09-08T08:47:39;95475.00;;;27.29;35.35
61292;BME280;47165;42.664;23.368;2023-09-08T08:50:05;95467.41;;;27.09;33.93
61292;BME280;47165;42.664;23.368;2023-09-08T08:52:35;95467.34;;;27.18;33.75
61292;BME280;47165;42.664;23.368;2023-09-08T08:55:01;95475.16;;;27.04;33.37
61292;BME280;47165;42.664;23.368;2023-09-08T08:57:27;95464.09;;;27.07;32.55
61292;BME280;47165;42.664;23.368;2023-09-08T08:59:52;95467.28;;;27.03;32.98
61292;BME280;47165;42.664;23.368;2023-09-08T09:02:18;95472.97;;;27.31;34.29
61292;BME280;47165;42.664;23.368;2023-09-08T09:04:45;95477.94;;;27.42;32.98
61292;BME280;47165;42.664;23.368;2023-09-08T09:07:11;95468.50;;;27.46;33.36
61292;BME280;47165;42.664;23.368;2023-09-08T09:09:36;95474.00;;;27.68;33.79
61292;BME280;47165;42.664;23.368;2023-09-08T09:12:03;95479.81;;;27.57;32.55
61292;BME280;47165;42.664;23.368;2023-09-08T09:14:34;95471.34;;;27.83;32.84
61292;BME280;47165;42.664;23.368;2023-09-08T09:17:00;95469.72;;;27.97;33.39
61292;BME280;47165;42.664;23.368;2023-09-08T09:19:27;95469.63;;;28.05;33.01
61292;BME280;47165;42.664;23.368;2023-09-08T09:21:54;95469.00;;;28.03;33.10
61292;BME280;47165;42.664;23.368;2023-09-08T09:24:33;95470.69;;;28.04;33.02
61292;BME280;47165;42.664;23.368;2023-09-08T09:27:02;95464.00;;;28.29;33.71
61292;BME280;47165;42.664;23.368;2023-09-08T09:29:30;95454.75;;;28.17;32.24
61292;BME280;47165;42.664;23.368;2023-09-08T09:32:03;95461.59;;;28.05;32.16
61292;BME280;47165;42.664;23.368;2023-09-08T09:34:29;95452.06;;;28.17;32.90
61292;BME280;47165;42.664;23.368;2023-09-08T09:36:55;95458.53;;;28.38;33.19
61292;BME280;47165;42.664;23.368;2023-09-08T09:39:23;95455.94;;;28.29;31.76
61292;BME280;47165;42.664;23.368;2023-09-08T09:41:59;95458.91;;;28.35;31.84
61292;BME280;47165;42.664;23.368;2023-09-08T09:44:25;95460.59;;;28.06;32.13
61292;BME280;47165;42.664;23.368;2023-09-08T09:46:52;95457.22;;;28.48;33.33
61292;BME280;47165;42.664;23.368;2023-09-08T09:49:19;95458.03;;;28.79;32.39
61292;BME280;47165;42.664;23.368;2023-09-08T09:51:48;95451.59;;;28.95;32.33
61292;BME280;47165;42.664;23.368;2023-09-08T09:54:14;95452.56;;;29.08;31.82
61292;BME280;47165;42.664;23.368;2023-09-08T09:56:43;95455.59;;;29.20;31.76
61292;BME280;47165;42.664;23.368;2023-09-08T09:59:11;95457.38;;;29.35;32.56
61292;BME280;47165;42.664;23.368;2023-09-08T10:04:34;95451.94;;;29.28;31.12
61292;BME280;47165;42.664;23.368;2023-09-08T10:06:59;95446.88;;;29.40;31.41
61292;BME280;47165;42.664;23.368;2023-09-08T10:09:25;95437.44;;;29.51;31.24
61292;BME280;47165;42.664;23.368;2023-09-08T10:11:54;95439.63;;;29.40;31.71
61292;BME280;47165;42.664;23.368;2023-09-08T10:14:21;95435.97;;;29.05;31.40
61292;BME280;47165;42.664;23.368;2023-09-08T10:16:49;95430.69;;;29.12;31.26
61292;BME280;47165;42.664;23.368;2023-09-08T10:19:17;95431.50;;;29.12;31.52
61292;BME280;47165;42.664;23.368;2023-09-08T10:21:47;95428.63;;;29.14;31.12
61292;BME280;47165;42.664;23.368;2023-09-08T10:24:26;95436.06;;;29.12;30.89
61292;BME280;47165;42.664;23.368;2023-09-08T10:27:05;95426.59;;;29.16;31.12
61292;BME280;47165;42.664;23.368;2023-09-08T10:29:34;95427.56;;;28.93;30.56
61292;BME280;47165;42.664;23.368;2023-09-08T10:32:00;95438.53;;;28.11;32.23
61292;BME280;47165;42.664;23.368;2023-09-08T10:34:27;95432.44;;;28.17;32.97
61292;BME280;47165;42.664;23.368;2023-09-08T10:36:54;95433.66;;;28.14;33.14
61292;BME280;47165;42.664;23.368;2023-09-08T10:45:02;95425.72;;;27.83;33.34
61292;BME280;47165;42.664;23.368;2023-09-08T10:47:54;95423.66;;;27.70;33.02
61292;BME280;47165;42.664;23.368;2023-09-08T10:50:35;95431.97;;;27.60;34.02
61292;BME280;47165;42.664;23.368;2023-09-08T10:53:15;95429.59;;;27.80;33.10
61292;BME280;47165;42.664;23.368;2023-09-08T10:55:42;95421.56;;;27.80;33.83
61292;BME280;47165;42.664;23.368;2023-09-08T10:58:18;95419.13;;;27.94;33.54
61292;BME280;47165;42.664;23.368;2023-09-08T11:00:51;95417.97;;;28.18;33.20
61292;BME280;47165;42.664;23.368;2023-09-08T11:03:27;95422.59;;;28.39;32.25
61292;BME280;47165;42.664;23.368;2023-09-08T11:05:53;95418.44;;;28.21;32.42
61292;BME280;47165;42.664;23.368;2023-09-08T11:08:19;95424.78;;;27.76;34.04
61292;BME280;47165;42.664;23.368;2023-09-08T11:10:53;95422.91;;;28.14;33.43
61292;BME280;47165;42.664;23.368;2023-09-08T11:13:19;95413.81;;;28.15;33.84
61292;BME280;47165;42.664;23.368;2023-09-08T11:15:45;95419.19;;;28.15;32.97
61292;BME280;47165;42.664;23.368;2023-09-08T11:18:11;95420.09;;;28.07;33.14
61292;BME280;47165;42.664;23.368;2023-09-08T11:20:37;95406.59;;;28.31;32.96
61292;BME280;47165;42.664;23.368;2023-09-08T11:23:03;95413.97;;;28.43;33.46
61292;BME280;47165;42.664;23.368;2023-09-08T11:25:32;95408.22;;;28.61;33.51
61292;BME280;47165;42.664;23.368;2023-09-08T11:27:58;95410.94;;;28.83;33.27
61292;BME280;47165;42.664;23.368;2023-09-08T11:30:25;95405.16;;;28.64;32.50
61292;BME280;47165;42.664;23.368;2023-09-08T11:32:50;95411.75;;;28.47;32.58
61292;BME280;47165;42.664;23.368;2023-09-08T11:35:16;95394.56;;;28.26;32.79
61292;BME280;47165;42.664;23.368;2023-09-08T11:37:46;95396.50;;;28.33;32.68
61292;BME280;47165;42.664;23.368;2023-09-08T11:40:12;95400.59;;;28.65;32.77
61292;BME280;47165;42.664;23.368;2023-09-08T11:42:43;95392.97;;;29.76;31.97
61292;BME280;47165;42.664;23.368;2023-09-08T11:47:44;95389.47;;;30.72;30.02
61292;BME280;47165;42.664;23.368;2023-09-08T11:50:10;95386.91;;;31.72;29.11
61292;BME280;47165;42.664;23.368;2023-09-08T11:52:45;95374.50;;;32.43;27.21
61292;BME280;47165;42.664;23.368;2023-09-08T11:55:11;95383.09;;;33.42;26.71
61292;BME280;47165;42.664;23.368;2023-09-08T11:57:39;95375.84;;;33.61;25.88
61292;BME280;47165;42.664;23.368;2023-09-08T12:00:06;95368.22;;;33.76;25.83
61292;BME280;47165;42.664;23.368;2023-09-08T12:02:35;95370.44;;;33.61;25.17
61292;BME280;47165;42.664;23.368;2023-09-08T12:05:02;95380.63;;;33.84;25.52
61292;BME280;47165;42.664;23.368;2023-09-08T12:07:28;95371.75;;;33.52;25.46
61292;BME280;47165;42.664;23.368;2023-09-08T12:09:54;95368.63;;;32.46;25.83
61292;BME280;47165;42.664;23.368;2023-09-08T12:12:20;95367.00;;;31.73;27.05
61292;BME280;47165;42.664;23.368;2023-09-08T12:14:45;95365.06;;;32.65;27.42
61292;BME280;47165;42.664;23.368;2023-09-08T12:17:11;95357.84;;;33.23;26.05
61292;BME280;47165;42.664;23.368;2023-09-08T12:19:39;95347.38;;;33.26;25.74
61292;BME280;47165;42.664;23.368;2023-09-08T12:22:06;95360.03;;;33.58;25.80
61292;BME280;47165;42.664;23.368;2023-09-08T12:29:55;95343.31;;;34.90;24.45
61292;BME280;47165;42.664;23.368;2023-09-08T12:32:22;95339.56;;;35.57;23.38
61292;BME280;47165;42.664;23.368;2023-09-08T12:34:48;95342.00;;;35.23;22.75
61292;BME280;47165;42.664;23.368;2023-09-08T12:37:26;95335.63;;;36.23;22.26
61292;BME280;47165;42.664;23.368;2023-09-08T12:39:55;95335.69;;;36.40;21.83
61292;BME280;47165;42.664;23.368;2023-09-08T12:42:22;95333.09;;;36.86;21.23
61292;BME280;47165;42.664;23.368;2023-09-08T12:44:51;95337.84;;;37.24;21.22
61292;BME280;47165;42.664;23.368;2023-09-08T12:47:17;95327.78;;;37.25;21.15
61292;BME280;47165;42.664;23.368;2023-09-08T12:49:43;95326.47;;;37.11;21.31
61292;BME280;47165;42.664;23.368;2023-09-08T12:52:08;95328.84;;;37.41;20.53
61292;BME280;47165;42.664;23.368;2023-09-08T12:54:35;95323.75;;;37.61;21.00
61292;BME280;47165;42.664;23.368;2023-09-08T12:57:01;95318.06;;;37.29;20.07
61292;BME280;47165;42.664;23.368;2023-09-08T12:59:26;95323.00;;;37.66;20.63
61292;BME280;47165;42.664;23.368;2023-09-08T13:01:52;95313.38;;;36.67;20.28
61292;BME280;47165;42.664;23.368;2023-09-08T13:04:18;95311.53;;;36.84;19.99
61292;BME280;47165;42.664;23.368;2023-09-08T13:06:44;95330.16;;;36.47;21.67
61292;BME280;47165;42.664;23.368;2023-09-08T13:09:10;95325.72;;;36.05;21.60
61292;BME280;47165;42.664;23.368;2023-09-08T13:11:36;95328.59;;;35.75;22.11
61292;BME280;47165;42.664;23.368;2023-09-08T13:14:01;95325.50;;;35.48;21.49
61292;BME280;47165;42.664;23.368;2023-09-08T13:16:27;95330.44;;;35.28;22.93
61292;BME280;47165;42.664;23.368;2023-09-08T13:18:52;95326.53;;;34.81;22.27
61292;BME280;47165;42.664;23.368;2023-09-08T13:21:18;95332.84;;;34.08;23.36
61292;BME280;47165;42.664;23.368;2023-09-08T13:23:43;95327.00;;;33.74;23.69
61292;BME280;47165;42.664;23.368;2023-09-08T13:26:09;95326.69;;;32.82;23.96